Terminal Aerodrome Forecast
Issued by NWS Twin Cities, MN

Home | Current Version | Previous Version | Graphics & Text | Print | Product List | Glossary On
Versions: 1 2 3 4 5 6 7 8 9 10 11 12 13 14 15 16 17 18 19 20 21
000
FTUS43 KMPX 051236 AAA
TAFSTC
TAF AMD
KSTC 051236Z 0513/0612 16009KT P6SM SCT080 BKN250
     FM051700 18013G21KT P6SM VCSH SCT060 BKN250
     FM060000 16009KT P6SM VCSH SCT045 BKN100
      TEMPO 0602/0605 VRB25G40KT 1 1/2SM TSRA OVC025CB
     FM060600 14008KT 5SM SHRA BR VCTS BKN025CB OVC050
     FM060900 14007KT 3SM SHRA BR SCT008 OVC015=

USA.gov is the U.S. government's official web portal to all federal, state and local government web resources and services.